Plain City, Utah
Current Conditions -  °F | °C
As of 6:53 PM on Friday 28 Nov 2014 (Local Time) from KOGD Reporting Station
Clear Clear  
Wind Chill: 56°   Ceiling: Unl
Heat Index: 56°   Visibility: 10mi
Dew Point: 18°   Wind: 16mph
Humidity: 23%   Direction: 180°S
Pressure: 29.79"   Gusts: NA
Location:  41.2701°N, 112.135°W
Report Text: KOGD 290153Z AUTO 18014KT 10SM CLR 13/M08 A2979 RMK AO2 SLP065 T01331078 TSNO
Loading
Personal Weather Stations






























Interactive Weather Map New forecast layout! Learn more

10-Day Weather Forecast

Advertisements
Track Severe Weather on mobile